Data for 11/07/2007

Time Sea-Level Adjusted Pressure Absolute Pressure Temperature Relative Humidity Dew Point   
(mb) (inHg) (mb) (inHg) (C) (F) (%) (C) (F)
00:05 1020 30.12 849 25.07 11.1 52 28 -6.8 19.7
00:10 1020 30.12 849 25.07 11 51.8 28 -6.8 19.8
00:15 1020 30.12 849 25.07 10.8 51.4 29 -6.5 20.2
00:20 1020 30.12 849 25.07 10.8 51.4 27 -7.6 18.3
00:25 1020 30.12 849 25.07 11.3 52.3 26 -7.5 18.5
00:30 1020 30.12 849 25.07 11.6 52.9 25 -7.5 18.5
00:35 1020 30.12 849 25.07 11.7 53.1 25 -7.5 18.5
00:40 1020 30.12 849 25.07 11.8 53.2 25 -7.7 18.1
00:45 1020 30.12 849 25.07 11.8 53.3 25 -7.5 18.5
00:50 1020 30.12 849 25.07 11.8 53.2 25 -7.8 18
00:55 1020 30.12 849 25.07 11.9 53.4 25 -7.6 18.4
01:00 1020 30.12 849 25.07 11.8 53.2 25 -7.3 18.8
01:05 1020 30.12 849 25.07 11.6 52.9 26 -7.3 18.9
01:10 1020 30.12 849 25.07 11.7 53 26 -7.4 18.7
01:15 1020 30.12 849 25.07 11.6 52.8 27 -6.7 20
01:20 1020 30.12 849 25.07 11.3 52.4 25 -7.8 18
01:25 1020 30.12 849 25.07 12 53.7 23 -8.3 17.1
01:30 1020 30.12 849 25.07 12.5 54.5 22 -8.7 16.4
01:35 1020 30.12 849 25.07 13 55.4 21 -8.8 16.2
01:40 1020 30.12 849 25.07 13.1 55.6 22 -8.3 17
01:45 1020 30.12 849 25.07 13.1 55.5 22 -8.3 17
01:50 1020 30.12 849 25.07 12.9 55.3 22 -8.4 16.9
01:55 1020 30.12 849 25.07 12.8 55.1 22 -8.4 16.9
02:00 1020 30.12 849 25.07 12.8 55 22 -8.2 17.2
02:05 1020 30.12 849 25.07 12.6 54.7 22 -8.2 17.2
02:10 1020 30.12 849 25.07 12.5 54.5 23 -8.3 17.1
02:15 1020 30.12 849 25.07 12.4 54.4 23 -8 17.6
02:20 1020 30.12 849 25.07 12.3 54.2 23 -8.4 16.9
02:25 1020 30.12 849 25.07 12.4 54.3 22 -8.5 16.7
02:30 1020 30.12 849 25.07 12.5 54.4 21 -9 15.8
02:35 1020 30.12 849 25.07 12.7 54.8 21 -8.9 16.1
02:40 1020 30.12 849 25.07 12.7 54.9 22 -8.6 16.5
02:45 1020 30.12 849 25.07 12.5 54.5 22 -8.8 16.2
02:50 1020 30.12 849 25.07 12.4 54.3 24 -7.7 18.1
02:55 1020 30.12 849 25.07 12 53.6 25 -7.5 18.4
03:00 1020 30.12 849 25.07 11.8 53.2 25 -7.4 18.6
03:05 1020 30.12 849 25.07 11.7 53 25 -7.8 18
03:10 1020 30.12 849 25.07 11.5 52.8 26 -7 19.3
03:15 1020 30.12 849 25.07 11.2 52.2 27 -7.1 19.2
03:20 1020 30.12 849 25.07 11.1 51.9 27 -7.1 19.3
03:25 1020 30.12 849 25.07 10.9 51.6 28 -7 19.4
03:30 1020 30.12 849 25.07 10.7 51.2 29 -6.7 20
03:35 1020 30.12 849 25.07 10.4 50.8 29 -6.8 19.8
03:40 1020 30.12 849 25.07 10.4 50.7 29 -6.8 19.8
03:45 1020 30.12 849 25.07 10.3 50.6 30 -6.7 20
03:50 1020 30.12 849 25.07 10.2 50.4 29 -7 19.4
03:55 1020 30.12 849 25.07 10.3 50.5 29 -7 19.4
04:00 1020 30.12 849 25.07 10.3 50.6 28 -7.4 18.6
04:05 1020 30.12 849 25.07 10.5 51 29 -7 19.5
04:10 1020 30.12 849 25.07 10.4 50.8 29 -6.8 19.8
04:15 1020 30.12 849 25.07 10.4 50.7 29 -6.8 19.7
04:20 1020 30.12 849 25.07 10.3 50.5 30 -6.6 20.1
04:25 1020 30.12 849 25.07 10.2 50.3 30 -6.7 19.9
04:30 1020 30.12 849 25.07 10.1 50.3 29 -7.1 19.1
04:35 1020 30.12 849 25.07 10.2 50.3 29 -7 19.4
04:40 1020 30.12 849 25.07 10.1 50.2 30 -6.7 20
04:45 1020 30.12 849 25.07 10 49.9 30 -6.8 19.8
04:50 1020 30.12 849 25.07 9.9 49.8 30 -6.8 19.8
04:55 1020 30.12 849 25.07 9.8 49.6 30 -6.8 19.7
05:00 1020 30.12 849 25.07 9.7 49.5 30 -6.9 19.6
05:05 1020 30.12 849 25.07 9.8 49.7 29 -7.3 18.9
05:10 1020 30.12 849 25.07 10 50 29 -7.2 19
05:15 1020 30.12 849 25.07 10 50.1 29 -7.2 19.1
05:20 1020 30.12 849 25.07 10.1 50.1 29 -7.3 18.9
05:25 1020 30.12 849 25.07 10.2 50.3 29 -7.1 19.2
05:30 1020 30.12 849 25.07 10.2 50.3 29 -7.1 19.2
05:35 1020 30.12 849 25.07 10.2 50.3 28 -7.4 18.7
05:40 1020 30.12 849 25.07 10.3 50.6 27 -7.7 18.1
05:45 1020 30.12 849 25.07 10.4 50.8 27 -7.6 18.3
05:50 1020 30.12 849 25.07 10.4 50.8 28 -7.4 18.6
05:55 1020 30.12 849 25.07 10.2 50.4 28 -7.6 18.3
06:00 1020 30.12 849 25.07 10.3 50.5 27 -7.7 18.2
06:05 1020 30.12 849 25.07 10.4 50.6 27 -7.7 18.2
06:10 1020 30.12 849 25.07 10.4 50.6 28 -7.4 18.6
06:15 1020 30.12 849 25.07 10.2 50.4 28 -7.7 18.2
06:20 1020 30.12 849 25.07 10.2 50.3 28 -7.7 18.1
06:25 1020 30.12 849 25.07 10.1 50.2 28 -7.6 18.3
06:30 1020 30.12 849 25.07 10.2 50.3 27 -7.8 17.9
06:35 1020 30.12 849 25.07 10.1 50.1 30 -6.7 19.9
06:40 1020 30.12 849 25.07 9.8 49.6 27 -8.3 17.1
06:45 1020 30.12 849 25.07 10.2 50.4 27 -7.9 17.8
06:50 1020 30.12 849 25.07 10.3 50.6 27 -7.9 17.7
06:55 1020 30.12 849 25.07 10.3 50.5 27 -7.9 17.8
07:00 1020 30.12 849 25.07 10.3 50.5 27 -7.7 18.1
07:05 1020 30.12 849 25.07 10.2 50.3 28 -7.6 18.4
07:10 1020 30.12 849 25.07 10.1 50.2 28 -7.6 18.2
07:15 1020 30.12 849 25.07 10.1 50.3 27 -7.8 18
07:20 1020 30.12 849 25.07 10.2 50.3 27 -7.9 17.8
07:25 1020 30.12 849 25.07 10.3 50.5 27 -8.1 17.5
07:30 1020 30.12 849 25.07 10.4 50.6 27 -7.8 17.9
07:35 1020 30.12 849 25.07 10.4 50.7 27 -7.6 18.3
07:40 1020 30.12 849 25.07 10.4 50.6 27 -7.6 18.3
07:45 1020 30.12 849 25.07 10.4 50.7 27 -7.9 17.8
07:50 1020 30.12 849 25.07 10.6 51 27 -7.6 18.2
07:55 1020 30.12 849 25.07 10.6 51 27 -7.6 18.3
08:00 1020 30.12 849 25.07 10.4 50.7 28 -7.1 19.2
08:05 1020 30.12 849 25.07 10.5 50.9 27 -7.8 18
08:10 1020 30.12 849 25.07 10.6 51.1 27 -7.8 17.9
08:15 1020 30.12 849 25.07 10.8 51.5 26 -8 17.5
08:20 1020 30.12 849 25.07 11 51.8 26 -7.8 18
08:25 1020 30.12 849 25.07 11 51.8 27 -7.3 18.8
08:30 1020 30.12 849 25.07 10.9 51.6 28 -6.9 19.6
08:35 1020 30.12 850 25.1 10.7 51.2 28 -7.2 19
08:40 1020 30.12 850 25.1 10.8 51.4 27 -7.3 18.9
08:45 1020 30.12 849 25.07 11 51.7 25 -8.1 17.4
08:50 1020 30.12 849 25.07 11.2 52.2 26 -7.8 18
08:55 1020 30.12 849 25.07 11.3 52.3 25 -7.9 17.8
09:00 1020 30.12 849 25.07 11.2 52.2 26 -7.7 18.1
09:05 1020 30.12 849 25.07 11.2 52.2 25 -8 17.6
09:10 1020 30.12 850 25.1 11.2 52.2 26 -7.6 18.3
09:15 1020 30.12 850 25.1 11.1 51.9 26 -7.6 18.3
09:20 1020 30.12 850 25.1 11 51.8 27 -7.2 19
09:25 1020 30.12 850 25.1 10.8 51.5 27 -7.3 18.8
09:30 1020 30.12 850 25.1 10.8 51.5 27 -7.5 18.6
09:35 1021 30.15 850 25.1 10.8 51.5 27 -7.4 18.7
09:40 1021 30.15 850 25.1 10.9 51.5 27 -7.2 19.1
09:45 1021 30.15 850 25.1 10.9 51.5 27 -7.5 18.5
09:50 1021 30.15 850 25.1 10.9 51.6 27 -7.1 19.2
09:55 1021 30.15 850 25.1 10.9 51.5 27 -7.5 18.5
10:00 1021 30.15 850 25.1 10.9 51.6 27 -7.3 18.9
10:05 1021 30.15 850 25.1 10.9 51.7 27 -7.1 19.2
10:10 1021 30.15 850 25.1 11 51.7 27 -7.1 19.2
10:15 1021 30.15 850 25.1 11 51.7 27 -7.1 19.3
10:20 1021 30.15 850 25.1 11 51.8 28 -6.9 19.6
10:25 1021 30.15 850 25.1 11.1 51.9 27 -7.1 19.3
10:30 1021 30.15 850 25.1 11.1 51.9 27 -7.1 19.2
10:35 1021 30.15 850 25.1 11.2 52.2 28 -6.8 19.8
10:40 1021 30.15 850 25.1 11.4 52.5 27 -6.9 19.6
10:45 1021 30.15 850 25.1 11.5 52.6 27 -7 19.4
10:50 1021 30.15 850 25.1 11.6 52.8 27 -6.9 19.6
10:55 1021 30.15 850 25.1 11.7 53 27 -6.7 20
11:00 1021 30.15 850 25.1 11.7 53.1 27 -6.8 19.8
11:05 1021 30.15 850 25.1 11.7 53.1 27 -6.9 19.6
11:10 1021 30.15 850 25.1 11.7 53.1 26 -7.3 18.9
11:15 1021 30.15 850 25.1 11.8 53.3 26 -7.2 19
11:20 1021 30.15 850 25.1 11.9 53.3 26 -6.8 19.8
11:25 1021 30.15 850 25.1 12 53.5 26 -6.8 19.8
11:30 1020 30.12 850 25.1 12.1 53.7 27 -6.5 20.3
11:35 1020 30.12 850 25.1 12.2 53.9 26 -6.6 20.1
11:40 1020 30.12 850 25.1 12.2 54 26 -6.7 20
11:45 1020 30.12 850 25.1 12.4 54.2 26 -6.4 20.4
11:50 1020 30.12 850 25.1 12.4 54.3 26 -6.7 20
11:55 1020 30.12 850 25.1 12.4 54.3 25 -6.9 19.7
12:00 1020 30.12 849 25.07 12.4 54.3 26 -6.7 19.9
12:05 1020 30.12 849 25.07 12.5 54.4 26 -6.5 20.3
12:10 1020 30.12 849 25.07 12.5 54.6 26 -6.7 20
12:15 1020 30.12 849 25.07 12.6 54.6 25 -7 19.4
12:20 1020 30.12 849 25.07 12.6 54.7 24 -7.3 18.9
12:25 1020 30.12 849 25.07 12.7 54.9 24 -7.5 18.6
12:30 1020 30.12 849 25.07 12.7 54.9 24 -7.4 18.7
12:35 1020 30.12 849 25.07 12.7 54.9 24 -7.1 19.3
12:40 1020 30.12 849 25.07 12.7 54.9 25 -6.9 19.6
12:45 1020 30.12 849 25.07 12.7 54.9 24 -7.1 19.2
12:50 1020 30.12 849 25.07 12.8 55 24 -7.3 18.8
12:55 1020 30.12 849 25.07 12.8 55 24 -7.1 19.2
13:00 1020 30.12 849 25.07 12.9 55.2 24 -7 19.3
13:05 1020 30.12 849 25.07 12.9 55.3 24 -6.9 19.5
13:10 1020 30.12 849 25.07 12.9 55.3 24 -7.1 19.3
13:15 1020 30.12 849 25.07 12.9 55.3 24 -6.9 19.6
13:20 1020 30.12 849 25.07 13 55.4 25 -6.8 19.8
13:25 1019 30.09 849 25.07 13 55.4 25 -6.7 19.9
13:30 1019 30.09 849 25.07 13 55.4 25 -6.3 20.6
13:35 1019 30.09 849 25.07 13.1 55.5 25 -6.3 20.6
13:40 1019 30.09 849 25.07 13.2 55.8 25 -6.3 20.6
13:45 1019 30.09 848 25.04 13.3 56 25 -6.3 20.6
13:50 1019 30.09 848 25.04 13.3 56 24 -6.8 19.8
13:55 1019 30.09 848 25.04 13.4 56.1 24 -6.6 20.1
14:00 1019 30.09 848 25.04 13.5 56.3 24 -6.8 19.7
14:05 1019 30.09 848 25.04 13.5 56.2 24 -6.8 19.8
14:10 1019 30.09 848 25.04 13.4 56.1 24 -6.4 20.4
14:15 1019 30.09 848 25.04 13.3 55.9 24 -7 19.3
14:20 1019 30.09 848 25.04 13.4 56 24 -6.7 19.9
14:25 1019 30.09 848 25.04 13.7 56.7 24 -6.6 20
14:30 1019 30.09 848 25.04 13.9 57 23 -6.8 19.7
14:35 1019 30.09 848 25.04 14.1 57.5 19 -9.2 15.5
14:40 1019 30.09 848 25.04 14.8 58.7 15 -11.5 11.3
14:45 1019 30.09 848 25.04 15.3 59.6 14 -11.6 11.1
14:50 1019 30.09 848 25.04 15.6 60 14 -11.8 10.7
14:55 1019 30.09 848 25.04 15.6 60.1 14 -11.3 11.6
15:00 1019 30.09 848 25.04 15.6 60 14 -12.1 10.2
15:05 1019 30.09 848 25.04 15.7 60.2 14 -11.6 11.2
15:10 1019 30.09 848 25.04 15.6 60.1 14 -11.9 10.6
15:15 1019 30.09 848 25.04 15.6 60 14 -11.7 10.9
15:20 1019 30.09 848 25.04 15.5 59.8 14 -11.9 10.6
15:25 1019 30.09 848 25.04 15.4 59.7 14 -11.6 11.2
15:30 1019 30.09 848 25.04 15.3 59.5 15 -11.5 11.3
15:35 1019 30.09 848 25.04 15.2 59.4 14 -11.9 10.6
15:40 1019 30.09 848 25.04 15.3 59.5 14 -12 10.3
15:45 1019 30.09 848 25.04 15.2 59.4 15 -11.5 11.2
15:50 1019 30.09 848 25.04 15.1 59.2 15 -11.6 11
15:55 1019 30.09 848 25.04 15 59 15 -11.7 10.9
16:00 1019 30.09 848 25.04 15 58.9 15 -11.5 11.3
16:05 1018 30.06 848 25.04 14.9 58.7 15 -11.5 11.2
16:10 1018 30.06 848 25.04 14.8 58.7 15 -11.8 10.8
16:15 1019 30.09 848 25.04 14.9 58.7 15 -11.9 10.7
16:20 1019 30.09 848 25.04 14.9 58.8 15 -11.7 11
16:25 1019 30.09 848 25.04 14.9 58.7 14 -12.1 10.2
16:30 1019 30.09 848 25.04 14.9 58.9 15 -11.7 11
16:35 1019 30.09 848 25.04 14.9 58.9 15 -11.7 10.9
16:40 1019 30.09 848 25.04 14.9 58.8 15 -11.5 11.2
16:45 1018 30.06 848 25.04 14.8 58.7 15 -11.3 11.6
16:50 1018 30.06 848 25.04 14.6 58.3 15 -11.4 11.6
16:55 1018 30.06 848 25.04 14.5 58.2 15 -11.5 11.3
17:00 1018 30.06 848 25.04 14.5 58 17 -10.2 13.6
17:05 1018 30.06 848 25.04 14.3 57.7 18 -9.9 14.1
17:10 1018 30.06 848 25.04 14 57.2 18 -9.7 14.6
17:15 1018 30.06 848 25.04 13.8 56.9 18 -9.9 14.2
17:20 1018 30.06 848 25.04 13.8 56.8 18 -10.1 13.7
17:25 1018 30.06 848 25.04 13.7 56.7 20 -9.2 15.5
17:30 1018 30.06 848 25.04 13.4 56 19 -9.5 15
17:35 1018 30.06 848 25.04 13.2 55.7 21 -8.9 16.1
17:40 1018 30.06 847 25.01 13.1 55.6 19 -9.8 14.4
17:45 1018 30.06 847 25.01 13.3 55.9 19 -10 14
17:50 1018 30.06 848 25.04 13.4 56.1 19 -9.6 14.7
17:55 1018 30.06 848 25.04 13.3 55.9 20 -9.4 15.1
18:00 1018 30.06 848 25.04 13.2 55.8 20 -9.2 15.5
18:05 1018 30.06 848 25.04 13.1 55.6 20 -9.3 15.3
18:10 1018 30.06 847 25.01 13.1 55.6 19 -10 13.9
18:15 1018 30.06 847 25.01 13.5 56.4 17 -10.7 12.8
18:20 1018 30.06 847 25.01 14 57.2 16 -11.6 11.2
18:25 1018 30.06 847 25.01 14.5 58 15 -11.7 11
18:30 1018 30.06 847 25.01 14.7 58.4 17 -10.4 13.4
18:35 1018 30.06 848 25.04 14.4 57.9 19 -9.2 15.4
18:40 1018 30.06 848 25.04 13.7 56.6 20 -8.7 16.3
18:45 1019 30.09 848 25.04 13.1 55.5 22 -8.4 16.9
18:50 1019 30.09 848 25.04 12.7 54.9 22 -8.6 16.6
18:55 1019 30.09 848 25.04 12.6 54.8 22 -8.4 16.8
19:00 1019 30.09 848 25.04 12.6 54.7 23 -8.2 17.2
19:05 1019 30.09 848 25.04 12.5 54.4 23 -8.2 17.2
19:10 1019 30.09 848 25.04 12.4 54.2 23 -8.1 17.4
19:15 1019 30.09 848 25.04 12.2 54 24 -8 17.6
19:20 1019 30.09 848 25.04 12.2 53.9 23 -8.2 17.3
19:25 1019 30.09 848 25.04 12.1 53.9 23 -8.1 17.4
19:30 1018 30.06 848 25.04 12.2 53.9 23 -8.4 16.9
19:35 1018 30.06 848 25.04 12.2 53.9 23 -8.3 17.1
19:40 1018 30.06 848 25.04 12.1 53.8 24 -7.9 17.8
19:45 1018 30.06 847 25.01 12 53.5 24 -8 17.6
19:50 1018 30.06 847 25.01 11.9 53.3 24 -8.3 17.1
19:55 1018 30.06 847 25.01 11.8 53.2 24 -8.3 17.1
20:00 1018 30.06 847 25.01 11.7 53 24 -8.4 16.9
20:05 1018 30.06 847 25.01 11.6 52.9 23 -8.6 16.5
20:10 1018 30.06 847 25.01 11.7 53 23 -8.5 16.7
20:15 1018 30.06 847 25.01 11.6 52.9 24 -8.4 16.9
20:20 1018 30.06 847 25.01 11.1 52 27 -7 19.3
20:25 1018 30.06 847 25.01 10.3 50.6 27 -7.7 18.1
20:30 1018 30.06 847 25.01 10.5 50.9 27 -7.9 17.7
20:35 1018 30.06 847 25.01 10.7 51.2 24 -8.9 15.9
20:40 1018 30.06 847 25.01 10.9 51.7 25 -8.5 16.7
20:45 1018 30.06 847 25.01 10.8 51.5 24 -8.7 16.4
20:50 1018 30.06 847 25.01 10.9 51.6 25 -8.1 17.3
20:55 1018 30.06 847 25.01 10.8 51.4 25 -8.4 16.9
21:00 1018 30.06 847 25.01 10.5 50.8 28 -7.5 18.6
21:05 1018 30.06 847 25.01 9.5 49.1 27 -8.6 16.5
21:10 1018 30.06 847 25.01 9.8 49.6 27 -8.2 17.2
21:15 1018 30.06 847 25.01 9.8 49.7 27 -8.2 17.2
21:20 1018 30.06 848 25.04 9.7 49.4 27 -8.4 16.9
21:25 1018 30.06 848 25.04 9.7 49.4 28 -8 17.5
21:30 1018 30.06 848 25.04 9.4 49 27 -8.8 16.2
21:35 1018 30.06 848 25.04 9.6 49.2 27 -8.6 16.5
21:40 1018 30.06 848 25.04 9.5 49.1 27 -8.4 16.9
21:45 1018 30.06 848 25.04 9.4 48.9 28 -8.4 17
21:50 1018 30.06 847 25.01 9.2 48.6 28 -8.5 16.7
21:55 1018 30.06 848 25.04 9.5 49 28 -8.2 17.2
22:00 1018 30.06 848 25.04 9.5 49.2 27 -8.3 17
22:05 1018 30.06 848 25.04 9.5 49.2 27 -8.4 16.9
22:10 1018 30.06 847 25.01 9.6 49.4 28 -8.1 17.4
22:15 1018 30.06 847 25.01 9.6 49.3 28 -8.2 17.2
22:20 1018 30.06 847 25.01 10 49.9 27 -8.3 17.1
22:25 1018 30.06 848 25.04 10.2 50.4 26 -8.2 17.2
22:30 1018 30.06 848 25.04 10.5 50.9 25 -8.5 16.8
22:35 1018 30.06 847 25.01 10.7 51.2 27 -7.8 18
22:40 1018 30.06 847 25.01 10.6 51 26 -8.2 17.3
22:45 1018 30.06 847 25.01 10.7 51.2 26 -8 17.6
22:50 1018 30.06 847 25.01 10.8 51.4 25 -8.4 17
22:55 1018 30.06 847 25.01 10.9 51.6 26 -8 17.6
23:00 1018 30.06 847 25.01 11 51.7 25 -8.2 17.2
23:05 1018 30.06 847 25.01 11 51.8 25 -8.2 17.2
23:10 1018 30.06 847 25.01 10.9 51.5 25 -8.2 17.3
23:15 1018 30.06 847 25.01 10.7 51.3 24 -8.9 16
23:20 1018 30.06 847 25.01 10.9 51.7 24 -8.8 16.1
23:25 1018 30.06 847 25.01 11.1 52 23 -9.1 15.6
23:30 1018 30.06 847 25.01 11.3 52.3 24 -8.6 16.5
23:35 1018 30.06 847 25.01 11.3 52.3 23 -8.9 16.1
23:40 1018 30.06 847 25.01 11.3 52.3 23 -8.9 15.9
23:45 1018 30.06 847 25.01 11.3 52.4 24 -8.6 16.5
23:50 1018 30.06 847 25.01 11.3 52.3 24 -8.8 16.2
23:55 1018 30.06 847 25.01 11.3 52.3 24 -8.8 16.1
24:00 1018 30.06 847 25.01 11.2 52.1 23 -9 15.9